Time;durP1;ratioP1;P1;durP2;ratioP2;P2;SDS_P1;SDS_P2;PMS_P1;PMS_P2;Temp;Humidity;BMP_temperature;BMP_pressure;BME280_temperature;BME280_humidity;BME280_pressure;Samples;Min_cycle;Max_cycle;Signal;HPM_P1;HPM_P2
2024/02/26 00:00:35;;;;;;;4.50;2.92;;;5.00;99.90;;;;;;5072864;28;20036;-68
2024/02/26 00:03:01;;;;;;;4.38;3.25;;;5.10;99.90;;;;;;5072967;28;20029;-68
2024/02/26 00:05:26;;;;;;;3.70;3.00;;;5.20;99.90;;;;;;5072543;28;20027;-68
2024/02/26 00:07:52;;;;;;;4.50;3.20;;;5.20;99.90;;;;;;5072640;28;20372;-68
2024/02/26 00:10:18;;;;;;;3.72;3.13;;;5.20;99.90;;;;;;5072368;28;20029;-69
2024/02/26 00:12:43;;;;;;;6.65;3.35;;;5.30;99.90;;;;;;5072995;28;20042;-68
2024/02/26 00:15:10;;;;;;;3.95;3.25;;;5.30;18.80;;;;;;5072750;28;20115;-68
2024/02/26 00:17:36;;;;;;;4.22;3.00;;;5.30;6.50;;;;;;5072842;28;20048;-68
2024/02/26 00:20:08;;;;;;;3.30;2.70;;;5.30;67.10;;;;;;5072807;28;20032;-67
2024/02/26 00:22:33;;;;;;;4.80;2.55;;;5.30;97.30;;;;;;5072492;28;20475;-68
2024/02/26 00:24:59;;;;;;;4.30;2.67;;;5.40;1.00;;;;;;5072814;28;20074;-68
2024/02/26 00:27:25;;;;;;;6.22;3.30;;;5.40;1.00;;;;;;5072781;28;20025;-68
2024/02/26 00:29:50;;;;;;;4.15;2.65;;;5.40;1.00;;;;;;5072588;28;20139;-69
2024/02/26 00:32:16;;;;;;;4.20;2.60;;;5.40;1.00;;;;;;5072590;28;20115;-68
2024/02/26 00:34:41;;;;;;;4.95;2.63;;;5.40;1.00;;;;;;5072769;28;20028;-68
2024/02/26 00:37:07;;;;;;;5.07;3.03;;;5.40;1.00;;;;;;5072602;28;20017;-68
2024/02/26 00:39:33;;;;;;;3.05;2.40;;;5.50;99.90;;;;;;5075872;28;20028;-68
2024/02/26 00:41:58;;;;;;;3.75;2.30;;;5.50;99.90;;;;;;5076268;28;20202;-68
2024/02/26 00:44:24;;;;;;;3.05;2.67;;;5.50;99.90;;;;;;5075749;28;20035;-67
2024/02/26 00:46:49;;;;;;;7.03;2.90;;;5.50;1.00;;;;;;5075895;28;20029;-67
2024/02/26 00:49:15;;;;;;;3.92;2.40;;;5.50;99.90;;;;;;5076099;28;20040;-68
2024/02/26 00:51:41;;;;;;;4.60;2.47;;;5.50;99.90;;;;;;5075842;28;20078;-68
2024/02/26 00:54:07;;;;;;;3.35;2.65;;;5.50;99.90;;;;;;5075732;28;20032;-67
2024/02/26 00:56:32;;;;;;;2.78;2.15;;;5.60;39.60;;;;;;5076022;28;20036;-68
2024/02/26 00:58:58;;;;;;;6.00;2.50;;;5.50;1.00;;;;;;5075915;28;20028;-67
2024/02/26 01:01:24;;;;;;;2.53;2.10;;;5.60;1.00;;;;;;5075482;28;20028;-68
2024/02/26 01:03:49;;;;;;;4.47;2.42;;;5.60;99.90;;;;;;5075380;28;20085;-68
2024/02/26 01:06:15;;;;;;;3.97;2.78;;;5.60;99.90;;;;;;5075496;28;20074;-68
2024/02/26 01:08:41;;;;;;;3.60;2.13;;;5.60;99.90;;;;;;5075869;28;20028;-68
2024/02/26 01:11:07;;;;;;;3.28;2.33;;;5.60;99.90;;;;;;5075410;28;20029;-68
2024/02/26 01:13:33;;;;;;;3.90;2.20;;;5.70;99.90;;;;;;5075532;28;20082;-67
2024/02/26 01:16:00;;;;;;;4.50;2.40;;;5.70;99.90;;;;;;5075207;28;20025;-68
2024/02/26 01:18:26;;;;;;;3.63;2.50;;;5.70;99.90;;;;;;5075137;28;20020;-68
2024/02/26 01:20:54;;;;;;;4.82;2.65;;;5.60;99.90;;;;;;5075600;28;20146;-68
2024/02/26 01:23:20;;;;;;;3.92;2.60;;;5.70;99.90;;;;;;5075371;28;20032;-69
2024/02/26 01:25:45;;;;;;;2.95;2.50;;;5.70;68.50;;;;;;5075647;28;20042;-68
2024/02/26 01:28:11;;;;;;;3.78;2.47;;;5.60;76.40;;;;;;5075106;28;20115;-68
2024/02/26 01:30:37;;;;;;;3.10;2.28;;;5.60;99.90;;;;;;5074986;28;20051;-68
2024/02/26 01:33:03;;;;;;;3.88;1.95;;;5.60;99.90;;;;;;5075221;28;20028;-68
2024/02/26 01:35:29;;;;;;;3.00;2.20;;;5.60;99.90;;;;;;5074989;28;20067;-67
2024/02/26 01:37:55;;;;;;;2.50;2.30;;;5.60;99.90;;;;;;5075249;28;20024;-68
2024/02/26 01:40:21;;;;;;;2.80;2.22;;;5.70;99.90;;;;;;5075115;28;20388;-68
2024/02/26 01:42:48;;;;;;;2.45;2.03;;;5.70;99.90;;;;;;5074839;28;20024;-69
2024/02/26 01:45:21;;;;;;;2.45;2.25;;;5.70;99.90;;;;;;5075107;28;20047;-68
2024/02/26 01:47:49;;;;;;;;;;;5.70;99.90;;;;;;5075069;28;20555;-68
2024/02/26 01:50:15;;;;;;;2.28;1.92;;;5.70;1.00;;;;;;5074899;28;19911;-68
2024/02/26 01:52:40;;;;;;;2.97;2.08;;;5.70;99.90;;;;;;5074565;28;20024;-68
2024/02/26 01:55:08;;;;;;;2.55;1.80;;;5.70;99.90;;;;;;5074813;28;20111;-68
2024/02/26 01:57:33;;;;;;;2.47;2.00;;;5.70;99.90;;;;;;5074853;28;20036;-69
2024/02/26 01:59:59;;;;;;;2.75;2.25;;;5.80;99.90;;;;;;5074699;28;20033;-68
2024/02/26 02:02:25;;;;;;;3.40;2.00;;;5.80;99.90;;;;;;5074780;28;20032;-68
2024/02/26 02:04:51;;;;;;;2.75;2.28;;;5.90;99.90;;;;;;5074715;28;20110;-68
2024/02/26 02:07:18;;;;;;;1.80;1.67;;;5.80;99.90;;;;;;5074658;28;20424;-68
2024/02/26 02:09:45;;;;;;;2.50;1.80;;;5.80;99.90;;;;;;5074675;28;20028;-67
2024/02/26 02:12:11;;;;;;;5.03;2.10;;;5.80;99.90;;;;;;5074094;28;20028;-68
2024/02/26 02:14:36;;;;;;;2.35;2.00;;;5.80;99.90;;;;;;5074460;28;20028;-68
2024/02/26 02:17:02;;;;;;;3.10;2.25;;;5.70;99.90;;;;;;5074313;28;20078;-68
2024/02/26 02:19:28;;;;;;;2.85;1.92;;;5.60;1.00;;;;;;5074383;28;20115;-68
2024/02/26 02:21:53;;;;;;;3.10;2.10;;;5.40;1.00;;;;;;5074320;28;20032;-68
2024/02/26 02:24:19;;;;;;;3.72;2.45;;;5.50;1.00;;;;;;5074328;28;20068;-68
2024/02/26 02:26:44;;;;;;;4.05;1.95;;;5.50;1.00;;;;;;5074283;28;20072;-68
2024/02/26 02:29:11;;;;;;;3.10;2.05;;;5.50;99.90;;;;;;5074103;28;20032;-68
2024/02/26 02:31:37;;;;;;;2.75;1.88;;;5.50;99.90;;;;;;5073605;28;20127;-69
2024/02/26 02:34:03;;;;;;;2.38;2.13;;;5.50;99.90;;;;;;5074118;28;20063;-68
2024/02/26 02:36:28;;;;;;;2.80;2.00;;;5.50;1.00;;;;;;5074074;28;20245;-68
2024/02/26 02:38:54;;;;;;;2.55;2.22;;;5.50;1.00;;;;;;5074084;28;20051;-68
2024/02/26 02:41:20;;;;;;;2.78;2.05;;;5.50;1.00;;;;;;5074075;28;20025;-68
2024/02/26 02:43:45;;;;;;;2.95;2.00;;;5.50;1.00;;;;;;5074058;28;20122;-67
2024/02/26 02:46:11;;;;;;;2.80;1.85;;;5.50;37.60;;;;;;5073838;28;20051;-68
2024/02/26 02:48:37;;;;;;;2.17;1.92;;;5.60;1.00;;;;;;5073817;28;20028;-68
2024/02/26 02:51:03;;;;;;;2.10;1.70;;;5.70;99.90;;;;;;5073292;28;20024;-68
2024/02/26 02:53:29;;;;;;;1.60;1.50;;;5.60;99.90;;;;;;5073756;28;20523;-68
2024/02/26 02:55:54;;;;;;;2.38;1.85;;;5.70;99.90;;;;;;5073822;28;20033;-68
2024/02/26 02:58:20;;;;;;;3.45;2.10;;;5.60;99.90;;;;;;5073701;28;20474;-68
2024/02/26 03:00:45;;;;;;;2.42;1.90;;;5.60;99.90;;;;;;5073385;28;20025;-68
2024/02/26 03:03:11;;;;;;;2.45;1.73;;;5.60;1.00;;;;;;5073147;28;20024;-68
2024/02/26 03:05:37;;;;;;;1.92;1.75;;;5.60;1.00;;;;;;5073344;28;20031;-68
2024/02/26 03:08:03;;;;;;;1.75;1.65;;;5.70;99.90;;;;;;5073541;28;20031;-68
2024/02/26 03:10:29;;;;;;;2.15;1.58;;;5.70;99.90;;;;;;5073160;28;20074;-68
2024/02/26 03:12:56;;;;;;;4.10;2.03;;;5.70;99.90;;;;;;5073502;28;20036;-68
2024/02/26 03:15:21;;;;;;;4.28;2.13;;;5.70;99.90;;;;;;5073399;28;20046;-68
2024/02/26 03:17:47;;;;;;;2.63;1.70;;;5.70;77.90;;;;;;5073576;28;20474;-68
2024/02/26 03:20:13;;;;;;;2.40;1.60;;;5.60;99.90;;;;;;5073657;28;20024;-68
2024/02/26 03:22:39;;;;;;;2.20;2.00;;;5.60;99.90;;;;;;5073308;28;20039;-68
2024/02/26 03:25:06;;;;;;;2.70;1.85;;;5.60;99.90;;;;;;5072847;28;20070;-68
2024/02/26 03:27:31;;;;;;;2.83;2.00;;;5.60;99.90;;;;;;5073258;28;20029;-68
2024/02/26 03:29:58;;;;;;;2.28;2.00;;;5.70;99.90;;;;;;5072780;28;20108;-68
2024/02/26 03:32:24;;;;;;;2.45;1.83;;;5.70;31.50;;;;;;5073024;28;20025;-68
2024/02/26 03:34:49;;;;;;;2.65;1.83;;;5.70;1.00;;;;;;5073210;28;20486;-68
2024/02/26 03:37:15;;;;;;;3.75;1.90;;;5.80;1.00;;;;;;5072907;28;20059;-68
2024/02/26 03:39:40;;;;;;;3.35;1.95;;;5.90;1.00;;;;;;5073092;28;20512;-68
2024/02/26 03:42:06;;;;;;;2.78;2.10;;;5.90;1.00;;;;;;5072780;28;20050;-68
2024/02/26 03:44:32;;;;;;;2.35;1.88;;;5.90;1.00;;;;;;5073116;28;20037;-69
2024/02/26 03:46:57;;;;;;;2.22;1.70;;;5.80;1.00;;;;;;5072803;28;20056;-69
2024/02/26 03:49:23;;;;;;;3.17;2.00;;;5.80;1.00;;;;;;5073088;28;20029;-68
2024/02/26 03:51:49;;;;;;;2.97;2.20;;;5.90;99.90;;;;;;5072676;28;20470;-69
2024/02/26 03:54:14;;;;;;;2.65;1.92;;;5.90;99.90;;;;;;5073132;28;20072;-69
2024/02/26 03:56:40;;;;;;;2.97;2.17;;;5.90;1.00;;;;;;5072934;28;20020;-68
2024/02/26 03:59:06;;;;;;;4.13;2.28;;;5.90;1.00;;;;;;5073012;28;20083;-68
2024/02/26 04:01:31;;;;;;;6.03;2.50;;;5.90;1.00;;;;;;5073059;28;20029;-68
2024/02/26 04:03:57;;;;;;;2.60;2.10;;;5.80;99.90;;;;;;5072629;28;20032;-68
2024/02/26 04:06:22;;;;;;;2.92;1.90;;;5.80;99.90;;;;;;5072966;28;20070;-68
2024/02/26 04:08:48;;;;;;;3.67;2.10;;;5.70;99.90;;;;;;5072643;28;20467;-68
2024/02/26 04:11:17;;;;;;;3.08;2.00;;;5.80;99.90;;;;;;5072403;28;20119;-68
2024/02/26 04:13:45;;;;;;;2.80;2.17;;;5.70;99.90;;;;;;5074475;28;20040;-69
2024/02/26 04:16:11;;;;;;;2.80;2.20;;;5.70;1.00;;;;;;5076708;28;20066;-68
2024/02/26 04:18:38;;;;;;;3.92;1.95;;;5.70;99.90;;;;;;5076215;28;20429;-68
2024/02/26 04:21:05;;;;;;;3.70;2.20;;;5.70;1.00;;;;;;5076508;28;20119;-70
2024/02/26 04:23:30;;;;;;;2.20;2.00;;;5.70;1.00;;;;;;5076527;28;20028;-68
2024/02/26 04:25:56;;;;;;;3.05;2.22;;;5.60;92.00;;;;;;5076632;28;20051;-68
2024/02/26 04:28:22;;;;;;;4.63;2.60;;;5.60;99.90;;;;;;5076534;28;20028;-67
2024/02/26 04:30:48;;;;;;;2.78;2.20;;;5.60;99.90;;;;;;5076228;28;20079;-68
2024/02/26 04:33:14;;;;;;;2.83;2.22;;;5.60;99.90;;;;;;5076595;28;20029;-68
2024/02/26 04:35:39;;;;;;;2.40;2.20;;;5.50;1.00;;;;;;5076265;28;20036;-68
2024/02/26 04:38:05;;;;;;;4.35;2.35;;;5.50;1.00;;;;;;5076300;28;20060;-68
2024/02/26 04:40:31;;;;;;;4.82;2.60;;;5.50;1.00;;;;;;5075839;28;20028;-68
2024/02/26 04:42:57;;;;;;;3.33;2.38;;;5.40;1.00;;;;;;5076311;28;20086;-69
2024/02/26 04:45:22;;;;;;;3.33;1.90;;;5.40;1.00;;;;;;5076235;28;20024;-68
2024/02/26 04:47:48;;;;;;;3.13;2.13;;;5.40;1.00;;;;;;5076227;28;20029;-68
2024/02/26 04:50:14;;;;;;;2.95;2.20;;;5.40;1.00;;;;;;5075944;28;20028;-68
2024/02/26 04:52:39;;;;;;;3.20;2.50;;;5.40;1.00;;;;;;5075897;28;20036;-68
2024/02/26 04:55:05;;;;;;;6.18;2.38;;;5.40;1.00;;;;;;5075914;28;20047;-68
2024/02/26 04:57:31;;;;;;;6.57;3.35;;;5.30;1.00;;;;;;5075550;28;20056;-67
2024/02/26 04:59:56;;;;;;;2.63;2.22;;;5.30;25.80;;;;;;5075904;28;20048;-68
2024/02/26 05:02:22;;;;;;;3.97;2.30;;;5.20;22.10;;;;;;5075896;28;20077;-68
2024/02/26 05:04:48;;;;;;;4.95;2.50;;;5.30;24.20;;;;;;5075831;28;20024;-67
2024/02/26 05:07:13;;;;;;;4.65;2.50;;;5.20;46.20;;;;;;5075798;28;20479;-68
2024/02/26 05:09:41;;;;;;;4.22;2.47;;;5.30;43.20;;;;;;5075691;28;20040;-68
2024/02/26 05:12:07;;;;;;;4.82;2.58;;;5.30;54.10;;;;;;5075422;28;20078;-68
2024/02/26 05:14:33;;;;;;;2.80;2.50;;;5.20;54.00;;;;;;5075226;28;20383;-68
2024/02/26 05:16:58;;;;;;;2.95;2.28;;;5.20;51.80;;;;;;5075644;28;20036;-67
2024/02/26 05:19:24;;;;;;;3.13;2.40;;;5.20;67.90;;;;;;5075580;28;20119;-68
2024/02/26 05:21:50;;;;;;;3.28;2.22;;;5.30;59.10;;;;;;5075648;28;20028;-67
2024/02/26 05:24:17;;;;;;;3.90;2.53;;;5.30;53.00;;;;;;5075319;28;20040;-67
2024/02/26 05:26:43;;;;;;;2.78;2.50;;;5.30;50.10;;;;;;5075327;28;20146;-67
2024/02/26 05:29:09;;;;;;;4.57;2.50;;;5.20;43.30;;;;;;5075223;28;20403;-68
2024/02/26 05:31:35;;;;;;;3.90;2.60;;;5.20;30.90;;;;;;5074854;28;20045;-67
2024/02/26 05:34:00;;;;;;;3.92;2.50;;;5.20;50.20;;;;;;5075290;28;20027;-68
2024/02/26 05:36:28;;;;;;;3.88;2.38;;;5.20;42.20;;;;;;5074835;28;20390;-67
2024/02/26 05:38:54;;;;;;;2.92;2.42;;;5.20;36.20;;;;;;5075227;28;20360;-67
2024/02/26 05:41:23;;;;;;;4.75;3.05;;;5.20;46.30;;;;;;5074799;28;20107;-68
2024/02/26 05:43:50;;;;;;;5.35;2.75;;;5.20;33.60;;;;;;5074727;28;20384;-68
2024/02/26 05:46:18;;;;;;;4.50;3.05;;;5.20;29.10;;;;;;5075122;28;20035;-67
2024/02/26 05:48:44;;;;;;;3.53;2.90;;;5.10;22.90;;;;;;5074538;28;20447;-67
2024/02/26 05:51:10;;;;;;;5.18;2.90;;;5.10;18.90;;;;;;5074788;28;20068;-67
2024/02/26 05:53:35;;;;;;;4.80;2.95;;;5.20;14.30;;;;;;5074447;28;20025;-68
2024/02/26 05:56:01;;;;;;;6.57;3.55;;;5.10;12.80;;;;;;5074944;28;20023;-68
2024/02/26 05:58:26;;;;;;;5.47;3.15;;;5.10;14.40;;;;;;5074779;28;20025;-68
2024/02/26 06:00:52;;;;;;;4.22;3.22;;;5.10;22.90;;;;;;5074707;28;20402;-68
2024/02/26 06:03:18;;;;;;;4.90;2.92;;;5.20;23.80;;;;;;5074414;28;20027;-68
2024/02/26 06:05:43;;;;;;;5.22;3.30;;;5.10;21.00;;;;;;5074217;28;20025;-68
2024/02/26 06:08:09;;;;;;;4.60;3.22;;;5.10;43.90;;;;;;5074583;28;20039;-68
2024/02/26 06:10:34;;;;;;;6.93;4.03;;;5.10;26.10;;;;;;5074422;28;20037;-68
2024/02/26 06:13:00;;;;;;;4.97;3.33;;;5.10;5.80;;;;;;5074551;28;20028;-69
2024/02/26 06:15:26;;;;;;;4.35;3.30;;;5.10;1.00;;;;;;5074057;28;20016;-67
2024/02/26 06:17:51;;;;;;;4.75;3.20;;;5.10;5.60;;;;;;5074369;28;20115;-68
2024/02/26 06:20:17;;;;;;;4.97;3.10;;;5.10;10.00;;;;;;5074477;28;20475;-68
2024/02/26 06:22:42;;;;;;;4.97;3.55;;;5.10;1.00;;;;;;5074043;28;20035;-67
2024/02/26 06:25:08;;;;;;;3.72;2.80;;;5.10;1.00;;;;;;5074333;28;20025;-68
2024/02/26 06:27:35;;;;;;;5.38;3.47;;;5.20;1.00;;;;;;5073786;28;20025;-68
2024/02/26 06:30:00;;;;;;;4.45;2.97;;;5.10;1.00;;;;;;5073920;28;20128;-68
2024/02/26 06:32:29;;;;;;;4.70;2.88;;;5.10;1.00;;;;;;5073887;28;20111;-68
2024/02/26 06:34:54;;;;;;;4.50;3.03;;;5.10;1.00;;;;;;5073944;28;20047;-68
2024/02/26 06:37:20;;;;;;;4.90;3.08;;;5.10;1.00;;;;;;5073266;28;20017;-69
2024/02/26 06:39:46;;;;;;;4.85;3.60;;;5.10;1.00;;;;;;5073635;28;20106;-68
2024/02/26 06:42:12;;;;;;;4.22;2.78;;;5.10;1.00;;;;;;5073867;28;20414;-68
2024/02/26 06:44:37;;;;;;;3.25;2.63;;;5.10;5.40;;;;;;5073885;28;20056;-69
2024/02/26 06:47:03;;;;;;;3.80;3.05;;;5.10;8.10;;;;;;5073593;28;20036;-68
2024/02/26 06:49:29;;;;;;;5.32;3.20;;;5.20;1.00;;;;;;5073807;28;20024;-68
2024/02/26 06:51:55;;;;;;;5.75;3.20;;;5.20;1.00;;;;;;5073470;28;20402;-68
2024/02/26 06:54:20;;;;;;;6.20;2.80;;;5.20;1.00;;;;;;5073746;28;20025;-69
2024/02/26 06:56:46;;;;;;;4.55;3.00;;;5.40;1.00;;;;;;5073135;28;20028;-68
2024/02/26 06:59:12;;;;;;;4.70;2.60;;;5.40;1.00;;;;;;5073595;28;20024;-69
2024/02/26 07:01:41;;;;;;;4.97;2.85;;;5.50;99.90;;;;;;5073639;28;20028;-68
2024/02/26 07:04:07;;;;;;;5.88;2.60;;;5.50;99.90;;;;;;5072775;28;20457;-68
2024/02/26 07:06:33;;;;;;;6.55;2.50;;;5.60;1.00;;;;;;5073396;28;20024;-68
2024/02/26 07:08:59;;;;;;;2.80;2.30;;;5.60;1.00;;;;;;5073374;28;20033;-68
2024/02/26 07:11:24;;;;;;;3.00;2.50;;;5.60;1.00;;;;;;5073260;28;20123;-72
2024/02/26 07:13:50;;;;;;;4.10;2.88;;;5.70;1.00;;;;;;5073656;28;20029;-71
2024/02/26 07:16:16;;;;;;;5.18;2.67;;;5.70;1.00;;;;;;5073599;28;20450;-72
2024/02/26 07:18:43;;;;;;;3.28;2.75;;;5.70;1.00;;;;;;5072932;28;20073;-72
2024/02/26 07:21:09;;;;;;;4.60;3.00;;;5.70;1.00;;;;;;5072917;28;20036;-72
2024/02/26 07:23:34;;;;;;;3.40;2.50;;;5.70;1.00;;;;;;5073388;28;20024;-72
2024/02/26 07:26:00;;;;;;;3.95;2.80;;;5.70;1.00;;;;;;5073314;28;20390;-72
2024/02/26 07:28:26;;;;;;;3.90;2.83;;;5.70;1.00;;;;;;5073273;28;20393;-73
2024/02/26 07:30:51;;;;;;;3.83;2.72;;;5.70;1.00;;;;;;5072808;28;20125;-72
2024/02/26 07:33:17;;;;;;;4.93;2.97;;;5.70;99.90;;;;;;5073072;28;20528;-74
2024/02/26 07:35:43;;;;;;;3.92;2.90;;;5.70;99.90;;;;;;5071771;28;20490;-74
2024/02/26 07:38:08;;;;;;;4.07;2.80;;;5.80;99.90;;;;;;5071920;28;20035;-73
2024/02/26 07:40:34;;;;;;;7.18;3.55;;;5.80;99.90;;;;;;5072222;28;20078;-72
2024/02/26 07:42:59;;;;;;;5.25;3.08;;;5.80;74.20;;;;;;5070827;28;20107;-73
2024/02/26 07:45:26;;;;;;;3.85;2.97;;;5.90;63.00;;;;;;5071894;28;20076;-68
2024/02/26 07:47:52;;;;;;;4.32;2.90;;;5.90;1.00;;;;;;5074378;28;20032;-68
2024/02/26 07:50:18;;;;;;;3.70;3.08;;;5.90;99.90;;;;;;5076184;28;20077;-69
2024/02/26 07:52:44;;;;;;;6.13;3.00;;;5.90;1.00;;;;;;5075939;28;20112;-68
2024/02/26 07:55:10;;;;;;;5.63;3.65;;;5.90;99.90;;;;;;5075934;28;20028;-67
2024/02/26 07:57:36;;;;;;;4.22;2.88;;;6.00;61.60;;;;;;5076642;28;20040;-66
2024/02/26 08:00:03;;;;;;;4.80;3.30;;;6.00;1.00;;;;;;5083971;28;20028;-68
2024/02/26 08:02:28;;;;;;;4.05;3.25;;;6.10;99.90;;;;;;5077158;28;20028;-68
2024/02/26 08:04:54;;;;;;;4.80;3.00;;;6.10;1.00;;;;;;5075063;28;20391;-68
2024/02/26 08:07:21;;;;;;;5.32;2.90;;;6.20;3.30;;;;;;5074010;28;20036;-69
2024/02/26 08:09:47;;;;;;;5.43;2.95;;;6.10;99.90;;;;;;5073914;28;20081;-68
2024/02/26 08:12:13;;;;;;;6.63;3.65;;;6.20;1.00;;;;;;5075443;28;20036;-68
2024/02/26 08:14:39;;;;;;;4.32;3.03;;;6.30;99.90;;;;;;5076168;28;20086;-67
2024/02/26 08:17:05;;;;;;;5.40;2.80;;;6.30;86.50;;;;;;5074819;28;20536;-68
2024/02/26 08:19:35;;;;;;;3.90;3.13;;;6.30;1.00;;;;;;5075546;28;20037;-68
2024/02/26 08:22:01;;;;;;;4.60;3.17;;;6.40;1.00;;;;;;5075544;28;20082;-68
2024/02/26 08:24:26;;;;;;;3.70;2.83;;;6.40;99.90;;;;;;5075864;28;20058;-68
2024/02/26 08:26:52;;;;;;;5.35;2.88;;;6.50;1.00;;;;;;5075389;28;20028;-68
2024/02/26 08:29:19;;;;;;;3.80;3.03;;;6.50;99.90;;;;;;5075258;28;20119;-69
2024/02/26 08:31:44;;;;;;;4.22;3.00;;;6.50;85.10;;;;;;5074906;28;20072;-69
2024/02/26 08:34:10;;;;;;;3.50;3.00;;;6.60;99.90;;;;;;5075147;28;20029;-69
2024/02/26 08:36:36;;;;;;;3.75;2.38;;;6.70;99.90;;;;;;5065667;28;20398;-69
2024/02/26 08:39:02;;;;;;;2.70;2.50;;;6.70;99.90;;;;;;5073069;28;20041;-69
2024/02/26 08:41:28;;;;;;;3.25;2.22;;;6.70;1.00;;;;;;5074404;28;20033;-70
2024/02/26 08:43:54;;;;;;;2.85;2.20;;;6.80;1.00;;;;;;5075826;28;20057;-69
2024/02/26 08:46:21;;;;;;;3.28;2.40;;;6.90;1.00;;;;;;5083781;28;20056;-69
2024/02/26 08:48:46;;;;;;;2.97;2.15;;;7.00;99.90;;;;;;5075107;28;20035;-69
2024/02/26 08:51:13;;;;;;;8.20;3.08;;;7.00;99.90;;;;;;5074116;28;20025;-68
2024/02/26 08:53:39;;;;;;;2.28;2.00;;;7.10;99.90;;;;;;5074373;28;20181;-69
2024/02/26 08:56:05;;;;;;;3.08;2.20;;;7.10;1.00;;;;;;5074215;28;20037;-69
2024/02/26 08:58:31;;;;;;;2.70;2.10;;;7.20;1.00;;;;;;5074385;28;20029;-69
2024/02/26 09:00:57;;;;;;;4.38;2.20;;;7.20;1.00;;;;;;5074273;28;20036;-69
2024/02/26 09:03:23;;;;;;;3.22;2.03;;;7.20;99.90;;;;;;5074101;28;20036;-70
2024/02/26 09:05:49;;;;;;;5.03;2.40;;;7.30;1.00;;;;;;5074358;28;20626;-69
2024/02/26 09:08:15;;;;;;;3.22;2.28;;;7.40;99.90;;;;;;5074801;28;20038;-69
2024/02/26 09:10:42;;;;;;;4.47;2.10;;;7.40;99.90;;;;;;5073934;28;20032;-69
2024/02/26 09:13:07;;;;;;;4.07;1.98;;;7.50;99.90;;;;;;5074149;28;20035;-69
2024/02/26 09:15:33;;;;;;;3.40;2.38;;;7.50;99.90;;;;;;5072782;28;20021;-69
2024/02/26 09:17:59;;;;;;;2.92;2.17;;;7.60;99.90;;;;;;5073509;28;20042;-69
2024/02/26 09:20:28;;;;;;;2.78;2.22;;;7.60;46.20;;;;;;5074002;28;20039;-70
2024/02/26 09:22:54;;;;;;;3.70;2.15;;;7.80;99.90;;;;;;5074175;28;20108;-70
2024/02/26 09:25:20;;;;;;;3.90;2.40;;;7.80;1.00;;;;;;5067364;28;20032;-70
2024/02/26 09:27:46;;;;;;;3.15;2.10;;;7.90;1.00;;;;;;5074413;28;20025;-69
2024/02/26 09:30:13;;;;;;;3.03;2.20;;;7.90;1.00;;;;;;5074757;28;20502;-69
2024/02/26 09:32:39;;;;;;;3.65;2.53;;;7.90;1.00;;;;;;5075838;28;20033;-70
2024/02/26 09:35:06;;;;;;;2.97;2.50;;;7.90;1.00;;;;;;5073816;28;20030;-70
2024/02/26 09:37:33;;;;;;;2.90;2.40;;;7.90;1.00;;;;;;5073288;28;20032;-71
2024/02/26 09:39:59;;;;;;;3.60;2.42;;;8.00;99.90;;;;;;5074671;28;20498;-70
2024/02/26 09:42:26;;;;;;;3.55;2.63;;;8.00;1.00;;;;;;5080912;28;20036;-69
2024/02/26 09:44:55;;;;;;;3.67;2.65;;;7.90;99.90;;;;;;5082899;28;20412;-68
2024/02/26 09:47:23;;;;;;;3.45;2.53;;;8.00;99.90;;;;;;5074219;28;20036;-68
2024/02/26 09:49:50;;;;;;;3.55;2.30;;;8.00;99.90;;;;;;5073295;28;20127;-68
2024/02/26 09:52:19;;;;;;;4.70;2.72;;;8.10;99.90;;;;;;5073089;28;20056;-68
2024/02/26 09:54:48;;;;;;;3.78;2.95;;;8.00;99.90;;;;;;5074602;28;20024;-69
2024/02/26 09:57:16;;;;;;;4.65;2.60;;;8.10;1.00;;;;;;5073399;28;20447;-70
2024/02/26 09:59:43;;;;;;;5.80;2.90;;;8.10;99.90;;;;;;5074513;28;20046;-69
2024/02/26 10:02:12;;;;;;;3.83;2.90;;;8.20;99.90;;;;;;5073953;28;20509;-69
2024/02/26 10:04:40;;;;;;;6.20;3.30;;;8.20;99.90;;;;;;5073704;28;20078;-69
2024/02/26 10:07:11;;;;;;;6.60;3.15;;;8.30;99.90;;;;;;5073071;28;20040;-69
2024/02/26 10:09:36;;;;;;;4.85;3.38;;;8.10;1.00;;;;;;5073055;28;20075;-69
2024/02/26 10:12:04;;;;;;;5.57;3.50;;;8.20;11.10;;;;;;5071664;28;20040;-69
2024/02/26 10:14:31;;;;;;;5.43;3.63;;;8.20;99.90;;;;;;5073315;28;20036;-73
2024/02/26 10:16:57;;;;;;;5.60;4.03;;;8.30;99.90;;;;;;5073408;28;20024;-70
2024/02/26 10:19:29;;;;;;;5.35;4.00;;;8.20;1.00;;;;;;5073404;28;20032;-68
2024/02/26 10:21:59;;;;;;;8.20;4.32;;;8.20;99.90;;;;;;5072804;28;20056;-70
2024/02/26 10:24:25;;;;;;;8.65;3.17;;;8.20;1.00;;;;;;5073667;28;20048;-70
2024/02/26 10:26:52;;;;;;;7.10;4.00;;;8.20;1.00;;;;;;5072563;28;20117;-70
2024/02/26 10:29:19;;;;;;;4.82;3.63;;;8.20;99.90;;;;;;5072524;28;20037;-69
2024/02/26 10:31:45;;;;;;;7.25;3.60;;;8.30;99.90;;;;;;5072368;28;20086;-69
2024/02/26 10:34:10;;;;;;;4.55;3.38;;;8.30;1.00;;;;;;5072269;28;20020;-71
2024/02/26 10:36:36;;;;;;;5.25;3.97;;;8.10;1.00;;;;;;5072462;28;20044;-70
2024/02/26 10:39:04;;;;;;;5.13;4.15;;;8.10;38.40;;;;;;5072934;28;20033;-69
2024/02/26 10:41:30;;;;;;;7.13;4.05;;;8.10;99.90;;;;;;5072879;28;20044;-69
2024/02/26 10:43:56;;;;;;;6.47;4.25;;;8.10;99.90;;;;;;5072178;28;20089;-69
2024/02/26 10:46:21;;;;;;;7.22;4.85;;;8.10;99.90;;;;;;5072435;28;20064;-69
2024/02/26 10:48:51;;;;;;;6.43;4.88;;;8.20;1.00;;;;;;5073703;28;20040;-69
2024/02/26 10:51:21;;;;;;;7.75;5.40;;;8.20;99.90;;;;;;5073028;28;20494;-68
2024/02/26 10:53:49;;;;;;;6.78;5.15;;;8.20;1.00;;;;;;5073510;28;20028;-69
2024/02/26 10:56:17;;;;;;;8.85;6.30;;;8.20;1.00;;;;;;5075173;28;20025;-69
2024/02/26 10:58:46;;;;;;;8.57;5.95;;;8.20;99.90;;;;;;5071855;28;20021;-69
2024/02/26 11:01:12;;;;;;;10.25;6.43;;;8.20;1.00;;;;;;5072562;28;20037;-70
2024/02/26 11:03:39;;;;;;;10.50;6.40;;;8.20;1.00;;;;;;5071318;28;20039;-70
2024/02/26 11:06:05;;;;;;;10.82;6.78;;;8.30;1.00;;;;;;5071423;28;20028;-70
2024/02/26 11:08:32;;;;;;;11.13;7.63;;;8.40;99.90;;;;;;5075717;28;20032;-68
2024/02/26 11:10:58;;;;;;;9.40;6.68;;;8.20;1.00;;;;;;5073494;28;20394;-70
2024/02/26 11:13:30;;;;;;;11.07;7.10;;;8.30;99.90;;;;;;5072787;28;20024;-69
2024/02/26 11:15:57;;;;;;;14.77;7.88;;;8.30;1.00;;;;;;5072094;28;20457;-69
2024/02/26 11:18:25;;;;;;;10.95;7.38;;;8.30;99.90;;;;;;5072656;28;20115;-69
2024/02/26 11:20:59;;;;;;;11.50;7.30;;;8.30;1.00;;;;;;5072176;28;20054;-68
2024/02/26 11:23:25;;;;;;;11.98;7.65;;;8.30;99.90;;;;;;5063802;28;20097;-70
2024/02/26 11:25:53;;;;;;;12.25;8.13;;;8.30;1.00;;;;;;5072632;28;20033;-68
2024/02/26 11:28:20;;;;;;;11.27;7.38;;;8.20;99.90;;;;;;5073096;28;20498;-68
2024/02/26 11:30:48;;;;;;;12.98;8.40;;;8.20;99.90;;;;;;5070996;28;20052;-68
2024/02/26 11:33:16;;;;;;;15.30;8.77;;;8.30;99.90;;;;;;5073143;28;20048;-69
2024/02/26 11:35:42;;;;;;;12.25;7.85;;;8.40;1.00;;;;;;5072158;28;20032;-68
2024/02/26 11:38:08;;;;;;;12.93;7.95;;;8.20;99.90;;;;;;5071574;28;20063;-68
2024/02/26 11:40:39;;;;;;;12.40;7.63;;;8.10;99.90;;;;;;5071969;28;20020;-68
2024/02/26 11:43:05;;;;;;;13.02;7.70;;;8.00;1.00;;;;;;5071540;28;20059;-68
2024/02/26 11:48:24;;;;;;;15.93;7.40;;;8.10;1.00;;;;;;5151781;27;20439;-69
2024/02/26 11:50:53;;;;;;;11.88;7.82;;;8.00;99.90;;;;;;5157779;27;20427;-68
2024/02/26 11:59:02;;;;;;;11.82;6.68;;;8.10;90.80;;;;;;5110032;27;20311;-70
2024/02/26 12:01:41;;;;;;;10.05;6.35;;;8.00;1.00;;;;;;5092387;28;20107;-71
2024/02/26 12:04:14;;;;;;;8.77;6.68;;;8.00;1.00;;;;;;5093052;28;20074;-69
2024/02/26 12:06:41;;;;;;;;;;;8.00;99.90;;;;;;5085798;28;20062;-68
2024/02/26 12:09:08;;;;;;;10.05;6.43;;;7.90;4.60;;;;;;5098141;28;20230;-68
2024/02/26 12:11:38;;;;;;;9.10;6.35;;;8.00;1.00;;;;;;5103537;28;20020;-68
2024/02/26 12:14:05;;;;;;;8.77;5.97;;;8.00;1.00;;;;;;5102132;28;20496;-67
2024/02/26 12:16:39;;;;;;;10.77;6.53;;;8.10;1.00;;;;;;5099009;28;20024;-68
2024/02/26 12:19:06;;;;;;;10.25;6.10;;;8.20;1.70;;;;;;5105448;28;20435;-66
2024/02/26 12:21:35;;;;;;;8.23;5.97;;;8.10;1.00;;;;;;5097777;28;20058;-69
2024/02/26 12:24:18;;;;;;;12.63;6.25;;;8.10;1.00;;;;;;5095788;28;20073;-68
2024/02/26 12:26:44;;;;;;;9.23;6.27;;;8.10;39.90;;;;;;5093356;28;20052;-68
2024/02/26 12:29:10;;;;;;;9.23;6.07;;;8.10;99.90;;;;;;5093824;28;20028;-69
2024/02/26 12:31:37;;;;;;;9.88;6.60;;;8.20;26.20;;;;;;5103286;28;20076;-69
2024/02/26 12:34:03;;;;;;;8.32;5.53;;;8.00;99.90;;;;;;5109934;28;20016;-68
2024/02/26 12:36:29;;;;;;;8.95;6.05;;;8.10;1.00;;;;;;5102069;28;20528;-68
2024/02/26 12:38:55;;;;;;;10.48;6.65;;;8.00;1.00;;;;;;5102551;28;20099;-70
2024/02/26 12:41:22;;;;;;;9.25;6.00;;;8.10;1.00;;;;;;5092741;28;20501;-69
2024/02/26 12:43:48;;;;;;;10.52;6.78;;;8.20;99.90;;;;;;5089217;28;20032;-72
2024/02/26 12:46:15;;;;;;;10.65;6.57;;;8.30;1.00;;;;;;5105968;28;20024;-70
2024/02/26 12:48:44;;;;;;;11.07;6.47;;;8.30;99.90;;;;;;5097172;28;20086;-71
2024/02/26 12:51:12;;;;;;;10.43;6.55;;;8.30;99.90;;;;;;5096691;28;20497;-69
2024/02/26 12:53:39;;;;;;;11.68;6.00;;;8.40;99.90;;;;;;5071367;28;20021;-69
2024/02/26 12:56:08;;;;;;;8.27;5.90;;;8.30;1.00;;;;;;5069800;28;20051;-69
2024/02/26 12:58:34;;;;;;;8.88;6.50;;;8.30;99.90;;;;;;5066258;28;20043;-69
2024/02/26 13:01:01;;;;;;;8.27;6.03;;;8.30;99.90;;;;;;5070528;28;20025;-68
2024/02/26 13:03:27;;;;;;;10.55;6.65;;;8.30;99.90;;;;;;5085363;28;20028;-68